createdAt,value
2023-01-25T00:00:53.074Z,102612.58
2023-01-25T00:03:26.391Z,102607.14
2023-01-25T00:06:01.863Z,102603.83
2023-01-25T00:08:30.182Z,102600.02
2023-01-25T00:10:58.680Z,102596.23
2023-01-25T00:13:27.312Z,102595.84
2023-01-25T00:16:01.936Z,102595.42
2023-01-25T00:18:29.859Z,102602.36
2023-01-25T00:20:57.620Z,102604.33
2023-01-25T00:23:25.417Z,102599.48
2023-01-25T00:25:59.273Z,102600.77
2023-01-25T00:28:27.258Z,102599.35
2023-01-25T00:31:00.580Z,102607.37
2023-01-25T00:33:37.520Z,102612.51
2023-01-25T00:36:24.125Z,102608.91
2023-01-25T00:38:54.368Z,102603.23
2023-01-25T00:41:22.107Z,102600.59
2023-01-25T00:43:49.879Z,102596.05
2023-01-25T00:46:18.576Z,102593.11
2023-01-25T00:48:46.728Z,102586.73
2023-01-25T00:51:15.810Z,102584.64
2023-01-25T00:53:43.684Z,102581.58
2023-01-25T00:56:11.859Z,102586.73
2023-01-25T00:58:40.951Z,102589.16
2023-01-25T05:28:22.076Z,102432.05
2023-01-25T05:30:49.998Z,102432.36
2023-01-25T05:33:17.928Z,102432.79
2023-01-25T05:35:45.789Z,102431.95
2023-01-25T05:38:13.951Z,102431.39
2023-01-25T05:40:41.675Z,102435.14
2023-01-25T05:43:09.885Z,102434.25
2023-01-25T05:45:37.647Z,102428.68
2023-01-25T05:48:05.825Z,102422.92
2023-01-25T05:50:33.613Z,102421.35
2023-01-25T05:53:01.459Z,102426.50
2023-01-25T05:55:29.320Z,102425.70
2023-01-25T05:57:58.105Z,102420.93
2023-01-25T06:00:26.073Z,102422.02
2023-01-25T06:02:56.083Z,102420.67
2023-01-25T06:05:24.164Z,102420.94
2023-01-25T06:07:51.889Z,102415.34
2023-01-25T06:10:19.688Z,102415.27
2023-01-25T06:12:47.657Z,102415.87
2023-01-25T06:15:15.528Z,102412.88
2023-01-25T06:17:43.593Z,102404.07
2023-01-25T06:20:11.910Z,102404.59
2023-01-25T06:22:39.732Z,102400.14
2023-01-25T06:25:08.675Z,102397.92
2023-01-25T06:27:36.588Z,102400.08
2023-01-25T06:30:05.103Z,102395.73
2023-01-25T06:32:33.515Z,102387.07
2023-01-25T06:35:01.317Z,102387.57
2023-01-25T06:37:29.141Z,102391.40
2023-01-25T06:39:57.175Z,102396.04
2023-01-25T06:42:25.117Z,102390.83
2023-01-25T06:44:52.849Z,102392.39
2023-01-25T06:47:20.641Z,102393.48
2023-01-25T06:49:48.507Z,102396.88
2023-01-25T06:52:16.469Z,102395.77
2023-01-25T06:54:44.235Z,102394.23
2023-01-25T06:57:12.300Z,102392.15
2023-01-25T06:59:40.172Z,102388.62
2023-01-25T07:02:09.671Z,102382.37
2023-01-25T07:04:37.741Z,102377.88
2023-01-25T07:07:09.244Z,102374.62
2023-01-25T07:09:37.322Z,102375.66
2023-01-25T07:12:05.460Z,102373.05
2023-01-25T07:14:33.711Z,102378.82
2023-01-25T07:17:03.063Z,102378.12
2023-01-25T07:19:31.803Z,102371.77
2023-01-25T07:21:59.573Z,102371.23
2023-01-25T07:24:29.165Z,102368.84
2023-01-25T07:26:56.938Z,102369.42
2023-01-25T07:29:25.005Z,102360.06
2023-01-25T07:31:53.343Z,102355.70
2023-01-25T07:34:21.479Z,102353.52
2023-01-25T07:36:49.316Z,102355.60
2023-01-25T07:39:17.398Z,102353.12
2023-01-25T07:41:45.389Z,102347.11
2023-01-25T07:44:13.446Z,102351.95
2023-01-25T07:46:41.491Z,102355.04
2023-01-25T07:49:09.300Z,102350.50
2023-01-25T07:51:37.689Z,102352.33
2023-01-25T07:54:11.953Z,102350.36
2023-01-25T07:56:40.953Z,102350.20
2023-01-25T07:59:12.099Z,102348.80
2023-01-25T08:01:40.592Z,102349.05
2023-01-25T08:04:09.478Z,102346.86
2023-01-25T08:06:41.580Z,102342.27
2023-01-25T08:09:13.518Z,102339.45
2023-01-25T08:11:42.063Z,102341.50
2023-01-25T08:14:11.542Z,102335.81
2023-01-25T08:16:39.445Z,102338.83
2023-01-25T08:19:07.357Z,102337.05
2023-01-25T08:21:36.389Z,102334.96
2023-01-25T08:24:06.521Z,102331.92
2023-01-25T08:26:36.166Z,102324.14
2023-01-25T08:29:05.514Z,102322.81
2023-01-25T08:31:35.399Z,102326.60
2023-01-25T08:34:04.542Z,102319.53
2023-01-25T08:36:32.449Z,102317.24
2023-01-25T08:39:03.604Z,102308.82
2023-01-25T08:41:33.251Z,102309.52
2023-01-25T08:44:01.212Z,102304.63
2023-01-25T08:46:32.162Z,102306.77
2023-01-25T08:49:02.779Z,102307.16
2023-01-25T08:51:32.196Z,102308.42
2023-01-25T08:54:07.677Z,102309.55
2023-01-25T08:56:38.449Z,102304.95
2023-01-25T08:59:06.843Z,102304.32
2023-01-25T09:01:34.912Z,102308.18
2023-01-25T09:04:03.118Z,102304.69
2023-01-25T09:06:31.258Z,102303.42
2023-01-25T09:09:00.463Z,102297.20
2023-01-25T09:11:28.730Z,102298.23
2023-01-25T09:13:56.731Z,102295.73
2023-01-25T09:16:29.217Z,102299.42
2023-01-25T09:18:59.699Z,102300.06
2023-01-25T09:21:28.382Z,102303.02
2023-01-25T09:24:06.106Z,102298.96
2023-01-25T09:26:42.837Z,102292.96
2023-01-25T09:29:12.353Z,102287.65
2023-01-25T09:31:41.216Z,102286.41
2023-01-25T09:34:11.641Z,102283.84
2023-01-25T09:36:39.548Z,102275.80
2023-01-25T09:39:07.813Z,102277.44
2023-01-25T09:41:44.688Z,102273.64
2023-01-25T09:44:15.556Z,102269.06
2023-01-25T09:46:58.865Z,102262.86
2023-01-25T09:50:01.063Z,102258.73
2023-01-25T09:53:10.565Z,102257.45
2023-01-25T09:55:39.663Z,102257.90
2023-01-25T09:58:15.097Z,102251.66
2023-01-25T10:00:45.679Z,102250.39
2023-01-25T10:03:39.366Z,102246.81
2023-01-25T10:06:13.150Z,102246.61
2023-01-25T10:09:02.596Z,102246.09
2023-01-25T10:11:33.175Z,102243.52
2023-01-25T10:14:01.589Z,102238.45
2023-01-25T10:16:53.144Z,102227.79
2023-01-25T10:19:31.431Z,102223.69
2023-01-25T10:22:25.002Z,102218.61
2023-01-25T10:25:21.630Z,102210.23
2023-01-25T10:28:20.437Z,102208.79
2023-01-25T10:30:55.712Z,102211.83
2023-01-25T10:33:24.290Z,102209.58
2023-01-25T10:35:52.301Z,102204.36
2023-01-25T10:38:25.849Z,102198.61
2023-01-25T10:41:00.665Z,102191.31
2023-01-25T10:43:29.322Z,102186.27
2023-01-25T10:45:57.182Z,102177.82
2023-01-25T10:48:33.239Z,102183.02
2023-01-25T10:51:01.203Z,102176.19
2023-01-25T10:53:44.471Z,102176.14
2023-01-25T10:56:26.060Z,102173.70
2023-01-25T10:59:08.282Z,102166.98
2023-01-25T11:01:37.531Z,102164.52
2023-01-25T11:04:32.941Z,102159.91
2023-01-25T11:07:03.246Z,102159.52
2023-01-25T11:09:37.197Z,102154.02
2023-01-25T11:12:21.299Z,102148.34
2023-01-25T11:14:50.599Z,102139.95
2023-01-25T11:17:25.860Z,102141.48
2023-01-25T11:20:17.230Z,102140.27
2023-01-25T11:22:57.227Z,102133.25
2023-01-25T11:25:31.657Z,102126.23
2023-01-25T11:28:21.069Z,102127.55
2023-01-25T11:30:53.118Z,102126.64
2023-01-25T11:33:22.770Z,102118.81
2023-01-25T11:35:50.954Z,102114.52
2023-01-25T11:38:23.522Z,102109.55
2023-01-25T11:41:00.597Z,102107.79
2023-01-25T11:43:52.838Z,102110.66
2023-01-25T11:46:23.702Z,102110.59
2023-01-25T11:49:18.761Z,102107.42
2023-01-25T11:52:28.736Z,102109.38
2023-01-25T11:55:27.735Z,102108.34
2023-01-25T11:58:13.816Z,102103.70
2023-01-25T12:00:54.755Z,102098.83
2023-01-25T12:03:40.700Z,102098.20
2023-01-25T12:06:24.881Z,102100.21
2023-01-25T12:09:05.219Z,102091.93
2023-01-25T12:11:57.618Z,102084.89
2023-01-25T12:14:34.698Z,102073.02
2023-01-25T12:17:16.496Z,102070.81
2023-01-25T12:20:07.238Z,102059.79
2023-01-25T12:22:38.451Z,102052.55
2023-01-25T12:25:43.941Z,102050.05
2023-01-25T12:29:13.727Z,102040.00
2023-01-25T12:31:58.723Z,102032.70
2023-01-25T12:34:37.149Z,102026.34
2023-01-25T12:37:22.963Z,102025.48
2023-01-25T12:40:17.870Z,102024.91
2023-01-25T12:42:55.923Z,102025.37
2023-01-25T12:45:25.934Z,102025.50
2023-01-25T12:48:13.318Z,102024.61
2023-01-25T12:50:46.337Z,102020.17
2023-01-25T12:53:38.518Z,102021.83
2023-01-25T12:56:08.863Z,102023.21
2023-01-25T12:58:46.553Z,102021.84
2023-01-25T13:01:23.310Z,102019.94
2023-01-25T13:04:00.512Z,102015.46
2023-01-25T13:06:41.580Z,102014.52
2023-01-25T13:09:24.513Z,102016.58
2023-01-25T13:11:52.507Z,102015.12
2023-01-25T13:14:26.477Z,102010.55
2023-01-25T13:17:09.530Z,102003.97
2023-01-25T13:19:37.875Z,102006.89
2023-01-25T13:22:05.741Z,102012.29
2023-01-25T13:24:54.701Z,102008.79
2023-01-25T13:27:30.939Z,102006.34
2023-01-25T13:30:22.996Z,102006.58
2023-01-25T13:32:50.873Z,102000.88
2023-01-25T13:35:26.833Z,101997.02
2023-01-25T13:38:11.682Z,101993.49
2023-01-25T13:40:40.350Z,101994.10
2023-01-25T13:43:22.613Z,101985.63
2023-01-25T13:45:52.804Z,101983.30
2023-01-25T13:48:23.420Z,101981.90
2023-01-25T13:50:57.908Z,101977.61
2023-01-25T13:53:32.292Z,101973.33
2023-01-25T13:56:00.345Z,101969.34
2023-01-25T13:58:34.910Z,101961.16
2023-01-25T14:01:06.739Z,101962.45
2023-01-25T14:03:44.109Z,101959.79
2023-01-25T14:06:28.045Z,101951.41
2023-01-25T14:08:59.389Z,101947.63
2023-01-25T14:11:30.738Z,101944.56
2023-01-25T14:14:16.727Z,101936.23
2023-01-25T14:16:45.212Z,101934.45
2023-01-25T14:19:29.979Z,101936.54
2023-01-25T14:22:27.193Z,101940.16
2023-01-25T14:25:33.997Z,101938.44
2023-01-25T14:28:06.388Z,101935.02
2023-01-25T14:30:36.158Z,101934.48
2023-01-25T14:33:21.575Z,101929.67
2023-01-25T14:35:57.405Z,101920.91
2023-01-25T14:38:36.429Z,101923.06
2023-01-25T14:41:17.618Z,101924.27
2023-01-25T14:43:51.726Z,101920.40
2023-01-25T14:46:28.404Z,101917.32
2023-01-25T14:49:15.105Z,101910.36
2023-01-25T14:51:55.049Z,101906.83
2023-01-25T14:54:26.204Z,101905.95
2023-01-25T14:56:58.051Z,101904.67
2023-01-25T14:59:31.363Z,101898.80
2023-01-25T15:02:03.587Z,101894.32
2023-01-25T15:04:33.890Z,101889.33
2023-01-25T15:07:12.750Z,101891.54
2023-01-25T15:10:02.494Z,101891.02
2023-01-25T15:12:33.115Z,101881.99
2023-01-25T15:15:03.089Z,101876.70
2023-01-25T15:17:43.444Z,101868.74
2023-01-25T15:20:38.857Z,101867.20
2023-01-25T15:23:23.637Z,101868.45
2023-01-25T15:26:01.872Z,101866.13
2023-01-25T15:28:35.085Z,101863.23
2023-01-25T15:31:04.992Z,101855.78
2023-01-25T15:33:34.235Z,101858.73
2023-01-25T15:36:02.197Z,101855.44
2023-01-25T15:38:29.956Z,101850.48
2023-01-25T15:41:01.647Z,101847.67
2023-01-25T15:43:29.388Z,101844.73
2023-01-25T15:45:59.457Z,101843.95
2023-01-25T15:48:32.784Z,101843.61
2023-01-25T15:51:00.794Z,101842.44
2023-01-25T15:53:29.025Z,101844.13
2023-01-25T15:56:04.711Z,101838.18
2023-01-25T15:58:41.139Z,101836.30
2023-01-25T16:01:09.551Z,101832.40
2023-01-25T16:03:41.532Z,101832.20
2023-01-25T16:06:42.986Z,101835.91
2023-01-25T16:09:23.189Z,101834.34
2023-01-25T16:11:54.444Z,101834.21
2023-01-25T16:14:23.952Z,101833.90
2023-01-25T16:16:53.063Z,101827.32
2023-01-25T16:19:23.753Z,101825.84
2023-01-25T16:21:51.950Z,101825.05
2023-01-25T16:24:20.275Z,101819.50
2023-01-25T16:26:48.203Z,101816.78
2023-01-25T16:29:16.359Z,101810.19
2023-01-25T16:31:44.358Z,101807.83
2023-01-25T16:34:12.394Z,101805.38
2023-01-25T16:36:40.825Z,101803.41
2023-01-25T16:39:15.903Z,101799.18
2023-01-25T16:41:46.977Z,101797.89
2023-01-25T16:44:15.420Z,101798.18
2023-01-25T16:46:44.102Z,101793.50
2023-01-25T16:49:17.099Z,101788.02
2023-01-25T16:51:49.881Z,101784.88
2023-01-25T16:54:20.035Z,101784.77
2023-01-25T16:56:48.853Z,101786.00
2023-01-25T16:59:17.885Z,101782.55
2023-01-25T17:01:46.400Z,101771.95
2023-01-25T17:04:14.973Z,101764.85
2023-01-25T17:06:46.420Z,101759.45
2023-01-25T17:09:23.443Z,101757.23
2023-01-25T17:11:52.723Z,101753.05
2023-01-25T17:14:21.353Z,101748.44
2023-01-25T17:16:52.028Z,101744.35
2023-01-25T17:19:20.765Z,101742.21
2023-01-25T17:21:48.646Z,101742.25
2023-01-25T17:24:19.623Z,101739.99
2023-01-25T17:26:47.558Z,101730.77
2023-01-25T17:29:15.365Z,101728.70
2023-01-25T17:31:44.640Z,101728.96
2023-01-25T17:34:16.279Z,101725.52
2023-01-25T17:36:44.796Z,101724.02
2023-01-25T17:39:15.588Z,101722.55
2023-01-25T17:41:44.888Z,101723.83
2023-01-25T17:44:13.720Z,101724.21
2023-01-25T17:46:41.523Z,101719.48
2023-01-25T17:49:13.754Z,101716.58
2023-01-25T17:51:41.555Z,101716.69
2023-01-25T17:54:11.980Z,101709.85
2023-01-25T17:56:40.358Z,101710.02
2023-01-25T17:59:09.662Z,101703.86
2023-01-25T18:01:38.518Z,101698.80
2023-01-25T18:04:08.370Z,101696.86
2023-01-25T18:06:37.113Z,101693.94
2023-01-25T18:09:08.511Z,101687.59
2023-01-25T18:11:38.507Z,101685.70
2023-01-25T18:14:10.619Z,101687.77
2023-01-25T18:16:40.344Z,101685.81
2023-01-25T18:19:09.187Z,101689.67
2023-01-25T18:21:38.226Z,101689.79
2023-01-25T18:24:24.122Z,101690.66
2023-01-25T18:26:54.372Z,101686.14
2023-01-25T18:29:39.284Z,101686.61
2023-01-25T18:32:08.410Z,101688.11
2023-01-25T18:34:36.425Z,101687.34
2023-01-25T18:37:19.419Z,101685.60
2023-01-25T18:39:55.296Z,101689.55
2023-01-25T18:42:26.041Z,101688.39
2023-01-25T18:44:54.076Z,101684.48
2023-01-25T18:47:23.646Z,101683.69
2023-01-25T18:49:53.213Z,101686.07
2023-01-25T18:52:22.996Z,101684.90
2023-01-25T18:54:51.143Z,101685.79
2023-01-25T18:57:19.555Z,101676.70
2023-01-25T18:59:47.745Z,101674.94
2023-01-25T19:02:19.165Z,101670.83
2023-01-25T19:04:47.342Z,101667.83
2023-01-25T19:07:15.211Z,101667.11
2023-01-25T19:09:44.004Z,101660.91
2023-01-25T19:12:11.871Z,101659.68
2023-01-25T19:14:40.040Z,101660.83
2023-01-25T19:17:08.508Z,101658.54
2023-01-25T19:19:36.501Z,101657.41
2023-01-25T19:22:04.344Z,101654.90
2023-01-25T19:24:32.277Z,101657.14
2023-01-25T19:27:00.178Z,101655.64
2023-01-25T19:29:28.500Z,101653.74
2023-01-25T19:31:56.389Z,101643.89
2023-01-25T19:34:24.746Z,101645.18
2023-01-25T19:36:54.073Z,101641.59
2023-01-25T19:39:21.905Z,101639.54
2023-01-25T19:41:53.308Z,101639.23
2023-01-25T19:44:21.995Z,101638.96
2023-01-25T19:46:50.816Z,101628.30
2023-01-25T19:49:19.271Z,101622.33
2023-01-25T19:51:52.962Z,101625.52
2023-01-25T19:54:23.199Z,101626.73
2023-01-25T19:56:51.061Z,101625.23
2023-01-25T19:59:21.179Z,101616.86
2023-01-25T20:01:49.346Z,101617.86
2023-01-25T20:04:20.390Z,101612.48
2023-01-25T20:06:49.890Z,101608.66
2023-01-25T20:09:20.100Z,101603.59
2023-01-25T20:11:48.095Z,101601.02
2023-01-25T20:14:16.056Z,101598.17
2023-01-25T20:16:44.124Z,101597.58
2023-01-25T20:19:12.424Z,101589.28
2023-01-25T20:21:43.564Z,101577.89
2023-01-25T20:24:11.428Z,101577.13
2023-01-25T20:26:42.949Z,101575.96
2023-01-25T20:29:12.459Z,101576.66
2023-01-25T20:31:45.395Z,101578.13
2023-01-25T20:34:16.067Z,101572.17
2023-01-25T20:36:44.685Z,101569.92
2023-01-25T20:39:15.521Z,101564.41
2023-01-25T20:41:44.282Z,101565.36
2023-01-25T20:44:14.606Z,101563.98
2023-01-25T20:46:43.357Z,101556.54
2023-01-25T20:49:15.550Z,101560.64
2023-01-25T20:51:44.038Z,101560.32
2023-01-25T20:54:12.279Z,101559.66
2023-01-25T20:56:43.223Z,101557.09
2023-01-25T20:59:11.118Z,101558.38
2023-01-25T21:01:39.257Z,101556.98
2023-01-25T21:04:08.152Z,101554.50
2023-01-25T21:06:36.236Z,101549.02
2023-01-25T21:09:04.654Z,101548.06
2023-01-25T21:11:33.012Z,101544.98
2023-01-25T21:14:01.585Z,101545.13
2023-01-25T21:16:30.223Z,101545.66
2023-01-25T21:19:00.294Z,101544.69
2023-01-25T21:21:30.552Z,101543.88
2023-01-25T21:24:02.666Z,101543.01
2023-01-25T21:26:33.201Z,101541.96
2023-01-25T21:29:03.924Z,101544.61
2023-01-25T21:31:34.431Z,101546.02
2023-01-25T21:34:03.046Z,101544.52
2023-01-25T21:36:31.242Z,101534.46
2023-01-25T21:38:59.073Z,101534.91
2023-01-25T21:41:33.453Z,101538.09
2023-01-25T21:44:20.623Z,101537.15
2023-01-25T21:47:15.769Z,101536.81
2023-01-25T21:49:55.052Z,101530.79
2023-01-25T21:52:22.952Z,101527.86
2023-01-25T21:54:50.885Z,101528.04
2023-01-25T21:57:18.752Z,101528.02
2023-01-25T21:59:46.609Z,101528.22
2023-01-25T22:02:14.999Z,101525.86
2023-01-25T22:04:43.283Z,101521.13
2023-01-25T22:07:11.773Z,101522.95
2023-01-25T22:09:39.618Z,101526.35
2023-01-25T22:12:07.586Z,101526.92
2023-01-25T22:14:35.555Z,101523.01
2023-01-25T22:17:03.615Z,101519.52
2023-01-25T22:19:32.434Z,101518.53
2023-01-25T22:22:00.683Z,101513.35
2023-01-25T22:24:28.440Z,101510.28
2023-01-25T22:27:04.830Z,101507.14
2023-01-25T22:29:34.685Z,101504.27
2023-01-25T22:32:03.510Z,101504.96
2023-01-25T22:34:32.119Z,101501.95
2023-01-25T22:37:00.261Z,101505.00
2023-01-25T22:39:28.641Z,101503.84
2023-01-25T22:41:57.022Z,101494.48
2023-01-25T22:44:25.004Z,101492.75
2023-01-25T22:46:54.075Z,101491.33
2023-01-25T22:49:22.595Z,101490.66
2023-01-25T22:51:50.835Z,101490.80
2023-01-25T22:54:19.832Z,101483.44
2023-01-25T22:56:47.691Z,101482.17
2023-01-25T22:59:19.135Z,101477.65
2023-01-25T23:01:47.209Z,101475.75
2023-01-25T23:04:15.352Z,101472.41
2023-01-25T23:06:44.587Z,101474.14
2023-01-25T23:09:12.344Z,101466.04
2023-01-25T23:11:40.206Z,101461.06
2023-01-25T23:14:30.500Z,101463.60
2023-01-25T23:17:18.337Z,101460.84
2023-01-25T23:19:46.299Z,101452.78
2023-01-25T23:22:14.026Z,101447.91
2023-01-25T23:24:41.835Z,101436.70
2023-01-25T23:27:09.591Z,101431.52
2023-01-25T23:29:37.557Z,101426.24
2023-01-25T23:32:06.099Z,101421.64
2023-01-25T23:34:37.286Z,101422.64
2023-01-25T23:37:05.151Z,101420.52
2023-01-25T23:39:33.513Z,101420.10
2023-01-25T23:42:01.325Z,101414.94
2023-01-25T23:44:29.186Z,101410.78
2023-01-25T23:46:57.059Z,101408.17
2023-01-25T23:49:24.890Z,101410.51
2023-01-25T23:51:52.657Z,101412.63
2023-01-25T23:54:20.516Z,101409.50
2023-01-25T23:56:48.379Z,101401.36
2023-01-25T23:59:16.147Z,101399.10
